sensor_id;sensor_type;location;lat;lon;timestamp;P1;durP1;ratioP1;P2;durP2;ratioP2
819;SDS011;392;48.838;2.322;2024-02-21T00:02:24;13.90;;;10.60;;
819;SDS011;392;48.838;2.322;2024-02-21T00:04:51;11.10;;;9.73;;
819;SDS011;392;48.838;2.322;2024-02-21T00:07:18;11.90;;;10.00;;
819;SDS011;392;48.838;2.322;2024-02-21T00:09:47;12.47;;;10.07;;
819;SDS011;392;48.838;2.322;2024-02-21T00:12:14;14.67;;;10.23;;
819;SDS011;392;48.838;2.322;2024-02-21T00:14:41;11.53;;;10.30;;
819;SDS011;392;48.838;2.322;2024-02-21T00:17:08;13.80;;;10.47;;
819;SDS011;392;48.838;2.322;2024-02-21T00:19:35;10.93;;;9.77;;
819;SDS011;392;48.838;2.322;2024-02-21T00:22:03;12.83;;;10.20;;
819;SDS011;392;48.838;2.322;2024-02-21T00:24:30;12.77;;;10.70;;
819;SDS011;392;48.838;2.322;2024-02-21T00:26:59;10.30;;;9.27;;
819;SDS011;392;48.838;2.322;2024-02-21T00:29:26;10.40;;;9.40;;
819;SDS011;392;48.838;2.322;2024-02-21T00:31:53;11.67;;;10.33;;
819;SDS011;392;48.838;2.322;2024-02-21T00:34:20;12.13;;;10.30;;
819;SDS011;392;48.838;2.322;2024-02-21T00:36:47;12.20;;;9.90;;
819;SDS011;392;48.838;2.322;2024-02-21T00:39:15;12.87;;;10.03;;
819;SDS011;392;48.838;2.322;2024-02-21T00:41:42;11.93;;;10.00;;
819;SDS011;392;48.838;2.322;2024-02-21T00:44:11;15.83;;;9.93;;
819;SDS011;392;48.838;2.322;2024-02-21T00:46:38;10.47;;;9.47;;
819;SDS011;392;48.838;2.322;2024-02-21T00:49:05;13.40;;;10.10;;
819;SDS011;392;48.838;2.322;2024-02-21T00:51:32;11.57;;;10.03;;
819;SDS011;392;48.838;2.322;2024-02-21T00:54:00;11.07;;;9.90;;
819;SDS011;392;48.838;2.322;2024-02-21T00:56:27;11.40;;;10.30;;
819;SDS011;392;48.838;2.322;2024-02-21T00:58:55;11.83;;;10.40;;
819;SDS011;392;48.838;2.322;2024-02-21T01:01:24;14.70;;;11.20;;
819;SDS011;392;48.838;2.322;2024-02-21T01:03:52;11.63;;;10.37;;
819;SDS011;392;48.838;2.322;2024-02-21T01:06:19;12.10;;;10.90;;
819;SDS011;392;48.838;2.322;2024-02-21T01:08:46;13.23;;;10.93;;
819;SDS011;392;48.838;2.322;2024-02-21T01:11:14;11.73;;;10.63;;
819;SDS011;392;48.838;2.322;2024-02-21T01:13:41;12.93;;;10.30;;
819;SDS011;392;48.838;2.322;2024-02-21T01:16:09;12.57;;;10.50;;
819;SDS011;392;48.838;2.322;2024-02-21T01:18:38;13.43;;;10.90;;
819;SDS011;392;48.838;2.322;2024-02-21T01:21:06;11.40;;;9.60;;
819;SDS011;392;48.838;2.322;2024-02-21T01:23:35;12.50;;;10.40;;
819;SDS011;392;48.838;2.322;2024-02-21T01:26:03;11.70;;;10.20;;
819;SDS011;392;48.838;2.322;2024-02-21T01:28:33;12.57;;;10.00;;
819;SDS011;392;48.838;2.322;2024-02-21T01:31:00;11.53;;;10.33;;
819;SDS011;392;48.838;2.322;2024-02-21T01:33:29;11.83;;;9.50;;
819;SDS011;392;48.838;2.322;2024-02-21T01:36:01;13.00;;;9.80;;
819;SDS011;392;48.838;2.322;2024-02-21T01:38:29;9.90;;;8.90;;
819;SDS011;392;48.838;2.322;2024-02-21T01:40:57;13.33;;;9.57;;
819;SDS011;392;48.838;2.322;2024-02-21T01:43:24;12.03;;;10.07;;
819;SDS011;392;48.838;2.322;2024-02-21T01:45:52;10.77;;;9.20;;
819;SDS011;392;48.838;2.322;2024-02-21T01:48:21;12.07;;;9.80;;
819;SDS011;392;48.838;2.322;2024-02-21T01:50:49;11.97;;;9.73;;
819;SDS011;392;48.838;2.322;2024-02-21T01:53:18;12.20;;;10.40;;
819;SDS011;392;48.838;2.322;2024-02-21T01:55:49;12.73;;;10.20;;
819;SDS011;392;48.838;2.322;2024-02-21T01:58:16;12.37;;;10.23;;
819;SDS011;392;48.838;2.322;2024-02-21T02:00:45;10.80;;;9.80;;
819;SDS011;392;48.838;2.322;2024-02-21T02:03:14;10.77;;;9.70;;
819;SDS011;392;48.838;2.322;2024-02-21T02:05:43;11.93;;;10.50;;
819;SDS011;392;48.838;2.322;2024-02-21T02:08:11;9.83;;;8.70;;
819;SDS011;392;48.838;2.322;2024-02-21T02:10:40;13.60;;;9.90;;
819;SDS011;392;48.838;2.322;2024-02-21T02:13:08;12.03;;;9.60;;
819;SDS011;392;48.838;2.322;2024-02-21T02:15:39;11.87;;;9.70;;
819;SDS011;392;48.838;2.322;2024-02-21T02:18:07;12.33;;;9.63;;
819;SDS011;392;48.838;2.322;2024-02-21T02:20:34;10.90;;;9.67;;
819;SDS011;392;48.838;2.322;2024-02-21T02:23:02;11.50;;;9.60;;
819;SDS011;392;48.838;2.322;2024-02-21T02:25:36;11.73;;;10.43;;
819;SDS011;392;48.838;2.322;2024-02-21T02:28:03;11.60;;;9.77;;
819;SDS011;392;48.838;2.322;2024-02-21T02:30:32;12.20;;;9.90;;
819;SDS011;392;48.838;2.322;2024-02-21T02:33:01;10.27;;;9.23;;
819;SDS011;392;48.838;2.322;2024-02-21T02:35:29;13.30;;;10.03;;
819;SDS011;392;48.838;2.322;2024-02-21T02:37:56;11.17;;;9.63;;
819;SDS011;392;48.838;2.322;2024-02-21T02:40:23;14.13;;;11.43;;
819;SDS011;392;48.838;2.322;2024-02-21T02:42:52;12.23;;;10.77;;
819;SDS011;392;48.838;2.322;2024-02-21T02:45:20;11.97;;;10.87;;
819;SDS011;392;48.838;2.322;2024-02-21T02:47:51;13.03;;;11.57;;
819;SDS011;392;48.838;2.322;2024-02-21T02:50:19;12.93;;;11.53;;
819;SDS011;392;48.838;2.322;2024-02-21T02:52:47;15.30;;;12.20;;
819;SDS011;392;48.838;2.322;2024-02-21T02:55:14;12.83;;;11.40;;
819;SDS011;392;48.838;2.322;2024-02-21T02:57:41;15.40;;;12.40;;
819;SDS011;392;48.838;2.322;2024-02-21T03:00:11;13.07;;;10.87;;
819;SDS011;392;48.838;2.322;2024-02-21T03:02:42;11.87;;;10.67;;
819;SDS011;392;48.838;2.322;2024-02-21T03:05:11;12.77;;;11.47;;
819;SDS011;392;48.838;2.322;2024-02-21T03:07:41;11.73;;;10.53;;
819;SDS011;392;48.838;2.322;2024-02-21T03:10:08;13.37;;;12.03;;
819;SDS011;392;48.838;2.322;2024-02-21T03:12:36;13.03;;;11.67;;
819;SDS011;392;48.838;2.322;2024-02-21T03:15:04;11.27;;;10.00;;
819;SDS011;392;48.838;2.322;2024-02-21T03:17:33;11.83;;;10.60;;
819;SDS011;392;48.838;2.322;2024-02-21T03:20:00;13.00;;;11.07;;
819;SDS011;392;48.838;2.322;2024-02-21T03:22:30;11.90;;;9.90;;
819;SDS011;392;48.838;2.322;2024-02-21T03:24:58;13.00;;;11.37;;
819;SDS011;392;48.838;2.322;2024-02-21T03:27:25;12.70;;;10.53;;
819;SDS011;392;48.838;2.322;2024-02-21T03:29:52;12.60;;;10.80;;
819;SDS011;392;48.838;2.322;2024-02-21T03:32:21;12.70;;;11.40;;
819;SDS011;392;48.838;2.322;2024-02-21T03:34:49;12.90;;;11.60;;
819;SDS011;392;48.838;2.322;2024-02-21T03:37:16;12.90;;;11.60;;
819;SDS011;392;48.838;2.322;2024-02-21T03:39:44;15.10;;;10.73;;
819;SDS011;392;48.838;2.322;2024-02-21T03:42:11;15.43;;;10.97;;
819;SDS011;392;48.838;2.322;2024-02-21T03:44:38;14.53;;;11.33;;
819;SDS011;392;48.838;2.322;2024-02-21T03:47:06;13.97;;;11.27;;
819;SDS011;392;48.838;2.322;2024-02-21T03:49:35;11.73;;;10.53;;
819;SDS011;392;48.838;2.322;2024-02-21T03:52:04;14.00;;;11.00;;
819;SDS011;392;48.838;2.322;2024-02-21T03:54:32;13.57;;;10.80;;
819;SDS011;392;48.838;2.322;2024-02-21T03:56:59;12.47;;;11.17;;
819;SDS011;392;48.838;2.322;2024-02-21T03:59:26;12.13;;;10.83;;
819;SDS011;392;48.838;2.322;2024-02-21T04:01:53;12.57;;;11.27;;
819;SDS011;392;48.838;2.322;2024-02-21T04:04:20;12.20;;;11.00;;
819;SDS011;392;48.838;2.322;2024-02-21T04:06:48;12.17;;;11.00;;
819;SDS011;392;48.838;2.322;2024-02-21T04:09:17;12.23;;;10.93;;
819;SDS011;392;48.838;2.322;2024-02-21T04:11:44;12.20;;;11.10;;
819;SDS011;392;48.838;2.322;2024-02-21T04:14:30;11.27;;;10.20;;
819;SDS011;392;48.838;2.322;2024-02-21T04:16:57;13.17;;;10.37;;
819;SDS011;392;48.838;2.322;2024-02-21T04:19:24;10.83;;;9.80;;
819;SDS011;392;48.838;2.322;2024-02-21T04:21:51;13.40;;;10.43;;
819;SDS011;392;48.838;2.322;2024-02-21T04:24:20;13.43;;;10.57;;
819;SDS011;392;48.838;2.322;2024-02-21T04:26:47;11.97;;;10.73;;
819;SDS011;392;48.838;2.322;2024-02-21T04:29:14;11.70;;;10.50;;
819;SDS011;392;48.838;2.322;2024-02-21T04:31:41;11.50;;;10.30;;
819;SDS011;392;48.838;2.322;2024-02-21T04:34:08;11.67;;;10.27;;
819;SDS011;392;48.838;2.322;2024-02-21T04:36:36;10.70;;;9.60;;
819;SDS011;392;48.838;2.322;2024-02-21T04:39:03;10.57;;;9.67;;
819;SDS011;392;48.838;2.322;2024-02-21T04:41:31;10.90;;;9.80;;
819;SDS011;392;48.838;2.322;2024-02-21T04:43:58;12.53;;;9.63;;
819;SDS011;392;48.838;2.322;2024-02-21T04:46:26;10.83;;;9.70;;
819;SDS011;392;48.838;2.322;2024-02-21T04:48:53;10.83;;;9.70;;
819;SDS011;392;48.838;2.322;2024-02-21T04:51:20;11.60;;;10.20;;
819;SDS011;392;48.838;2.322;2024-02-21T04:53:48;12.33;;;10.37;;
819;SDS011;392;48.838;2.322;2024-02-21T04:56:15;10.60;;;9.17;;
819;SDS011;392;48.838;2.322;2024-02-21T04:58:44;18.33;;;10.80;;
819;SDS011;392;48.838;2.322;2024-02-21T05:01:11;10.73;;;9.67;;
819;SDS011;392;48.838;2.322;2024-02-21T05:03:38;11.70;;;9.90;;
819;SDS011;392;48.838;2.322;2024-02-21T05:06:05;11.10;;;9.70;;
819;SDS011;392;48.838;2.322;2024-02-21T05:08:33;13.17;;;10.43;;
819;SDS011;392;48.838;2.322;2024-02-21T05:11:00;10.57;;;9.47;;
819;SDS011;392;48.838;2.322;2024-02-21T05:13:27;11.30;;;10.10;;
819;SDS011;392;48.838;2.322;2024-02-21T05:15:56;10.63;;;9.43;;
819;SDS011;392;48.838;2.322;2024-02-21T05:18:26;11.43;;;10.23;;
819;SDS011;392;48.838;2.322;2024-02-21T05:20:53;12.40;;;9.70;;
819;SDS011;392;48.838;2.322;2024-02-21T05:23:20;13.40;;;11.07;;
819;SDS011;392;48.838;2.322;2024-02-21T05:25:48;11.90;;;9.90;;
819;SDS011;392;48.838;2.322;2024-02-21T05:28:15;11.73;;;9.80;;
819;SDS011;392;48.838;2.322;2024-02-21T05:30:42;9.97;;;8.97;;
819;SDS011;392;48.838;2.322;2024-02-21T05:33:11;10.83;;;9.50;;
819;SDS011;392;48.838;2.322;2024-02-21T05:35:46;9.83;;;8.77;;
819;SDS011;392;48.838;2.322;2024-02-21T05:38:13;11.10;;;8.70;;
819;SDS011;392;48.838;2.322;2024-02-21T05:40:41;11.27;;;10.23;;
819;SDS011;392;48.838;2.322;2024-02-21T05:43:08;10.53;;;9.30;;
819;SDS011;392;48.838;2.322;2024-02-21T05:45:36;11.20;;;9.43;;
819;SDS011;392;48.838;2.322;2024-02-21T05:48:04;10.40;;;9.30;;
819;SDS011;392;48.838;2.322;2024-02-21T05:50:33;11.87;;;9.20;;
819;SDS011;392;48.838;2.322;2024-02-21T05:53:00;9.60;;;8.60;;
819;SDS011;392;48.838;2.322;2024-02-21T05:55:28;10.80;;;9.70;;
819;SDS011;392;48.838;2.322;2024-02-21T05:57:55;13.27;;;10.00;;
819;SDS011;392;48.838;2.322;2024-02-21T06:00:23;10.20;;;9.23;;
819;SDS011;392;48.838;2.322;2024-02-21T06:02:50;10.80;;;9.70;;
819;SDS011;392;48.838;2.322;2024-02-21T06:05:17;11.13;;;9.30;;
819;SDS011;392;48.838;2.322;2024-02-21T06:07:46;11.23;;;10.13;;
819;SDS011;392;48.838;2.322;2024-02-21T06:10:13;10.43;;;9.43;;
819;SDS011;392;48.838;2.322;2024-02-21T06:12:40;10.60;;;9.50;;
819;SDS011;392;48.838;2.322;2024-02-21T06:15:08;11.43;;;9.83;;
819;SDS011;392;48.838;2.322;2024-02-21T06:17:36;10.70;;;9.40;;
819;SDS011;392;48.838;2.322;2024-02-21T06:20:03;11.50;;;9.93;;
819;SDS011;392;48.838;2.322;2024-02-21T06:22:31;11.20;;;9.90;;
819;SDS011;392;48.838;2.322;2024-02-21T06:25:00;10.67;;;9.57;;
819;SDS011;392;48.838;2.322;2024-02-21T06:27:28;10.60;;;9.40;;
819;SDS011;392;48.838;2.322;2024-02-21T06:29:55;10.90;;;9.90;;
819;SDS011;392;48.838;2.322;2024-02-21T06:32:22;10.87;;;9.50;;
819;SDS011;392;48.838;2.322;2024-02-21T06:34:49;11.83;;;10.60;;
819;SDS011;392;48.838;2.322;2024-02-21T06:37:16;11.30;;;10.20;;
819;SDS011;392;48.838;2.322;2024-02-21T06:39:44;10.40;;;9.50;;
819;SDS011;392;48.838;2.322;2024-02-21T06:42:12;11.00;;;9.90;;
819;SDS011;392;48.838;2.322;2024-02-21T06:44:40;12.07;;;9.50;;
819;SDS011;392;48.838;2.322;2024-02-21T06:47:07;10.43;;;9.20;;
819;SDS011;392;48.838;2.322;2024-02-21T06:49:34;10.90;;;9.40;;
819;SDS011;392;48.838;2.322;2024-02-21T06:52:02;10.67;;;9.50;;
819;SDS011;392;48.838;2.322;2024-02-21T06:54:31;10.17;;;9.10;;
819;SDS011;392;48.838;2.322;2024-02-21T06:56:58;9.43;;;8.50;;
819;SDS011;392;48.838;2.322;2024-02-21T06:59:26;11.23;;;9.30;;
819;SDS011;392;48.838;2.322;2024-02-21T07:01:54;10.37;;;9.27;;
819;SDS011;392;48.838;2.322;2024-02-21T07:04:21;10.70;;;9.60;;
819;SDS011;392;48.838;2.322;2024-02-21T07:06:49;9.97;;;8.70;;
819;SDS011;392;48.838;2.322;2024-02-21T07:09:16;9.40;;;8.60;;
819;SDS011;392;48.838;2.322;2024-02-21T07:11:43;9.37;;;8.37;;
819;SDS011;392;48.838;2.322;2024-02-21T07:14:10;9.33;;;8.53;;
819;SDS011;392;48.838;2.322;2024-02-21T07:16:39;9.07;;;8.03;;
819;SDS011;392;48.838;2.322;2024-02-21T07:19:06;9.80;;;8.30;;
819;SDS011;392;48.838;2.322;2024-02-21T07:21:33;9.43;;;8.53;;
819;SDS011;392;48.838;2.322;2024-02-21T07:24:03;8.90;;;8.00;;
819;SDS011;392;48.838;2.322;2024-02-21T07:26:31;9.20;;;8.20;;
819;SDS011;392;48.838;2.322;2024-02-21T07:28:58;9.00;;;8.00;;
819;SDS011;392;48.838;2.322;2024-02-21T07:31:25;8.07;;;7.30;;
819;SDS011;392;48.838;2.322;2024-02-21T07:33:54;8.20;;;7.37;;
819;SDS011;392;48.838;2.322;2024-02-21T07:36:25;8.87;;;7.97;;
819;SDS011;392;48.838;2.322;2024-02-21T07:38:54;8.33;;;7.47;;
819;SDS011;392;48.838;2.322;2024-02-21T07:41:22;10.37;;;7.70;;
819;SDS011;392;48.838;2.322;2024-02-21T07:43:49;8.00;;;7.17;;
819;SDS011;392;48.838;2.322;2024-02-21T07:46:17;8.30;;;7.50;;
819;SDS011;392;48.838;2.322;2024-02-21T07:48:45;10.10;;;7.30;;
819;SDS011;392;48.838;2.322;2024-02-21T07:51:14;8.30;;;7.47;;
819;SDS011;392;48.838;2.322;2024-02-21T07:53:43;8.73;;;7.83;;
819;SDS011;392;48.838;2.322;2024-02-21T07:56:11;8.73;;;7.70;;
819;SDS011;392;48.838;2.322;2024-02-21T07:58:39;8.30;;;7.50;;
819;SDS011;392;48.838;2.322;2024-02-21T08:01:06;9.20;;;7.30;;
819;SDS011;392;48.838;2.322;2024-02-21T08:03:33;7.83;;;7.13;;
819;SDS011;392;48.838;2.322;2024-02-21T08:06:00;9.10;;;7.40;;
819;SDS011;392;48.838;2.322;2024-02-21T08:08:29;9.27;;;8.13;;
819;SDS011;392;48.838;2.322;2024-02-21T08:10:57;8.90;;;8.00;;
819;SDS011;392;48.838;2.322;2024-02-21T08:13:24;8.13;;;7.40;;
819;SDS011;392;48.838;2.322;2024-02-21T08:15:51;8.73;;;7.70;;
819;SDS011;392;48.838;2.322;2024-02-21T08:18:18;8.90;;;8.00;;
819;SDS011;392;48.838;2.322;2024-02-21T08:20:45;9.57;;;8.23;;
819;SDS011;392;48.838;2.322;2024-02-21T08:23:15;8.70;;;7.80;;
819;SDS011;392;48.838;2.322;2024-02-21T08:25:46;9.33;;;7.83;;
819;SDS011;392;48.838;2.322;2024-02-21T08:28:13;8.57;;;7.77;;
819;SDS011;392;48.838;2.322;2024-02-21T08:30:40;8.70;;;7.77;;
819;SDS011;392;48.838;2.322;2024-02-21T08:33:13;9.87;;;8.10;;
819;SDS011;392;48.838;2.322;2024-02-21T08:35:42;10.00;;;7.47;;
819;SDS011;392;48.838;2.322;2024-02-21T08:38:09;9.23;;;7.60;;
819;SDS011;392;48.838;2.322;2024-02-21T08:40:37;8.57;;;7.20;;
819;SDS011;392;48.838;2.322;2024-02-21T08:43:05;10.57;;;8.10;;
819;SDS011;392;48.838;2.322;2024-02-21T08:45:32;11.00;;;7.60;;
819;SDS011;392;48.838;2.322;2024-02-21T08:47:59;9.10;;;8.20;;
819;SDS011;392;48.838;2.322;2024-02-21T08:50:27;10.27;;;8.10;;
819;SDS011;392;48.838;2.322;2024-02-21T08:52:54;8.30;;;7.43;;
819;SDS011;392;48.838;2.322;2024-02-21T08:55:21;8.77;;;7.90;;
819;SDS011;392;48.838;2.322;2024-02-21T08:57:49;10.33;;;7.57;;
819;SDS011;392;48.838;2.322;2024-02-21T09:00:18;10.33;;;9.33;;
819;SDS011;392;48.838;2.322;2024-02-21T09:02:49;8.90;;;8.00;;
819;SDS011;392;48.838;2.322;2024-02-21T09:05:16;8.77;;;7.83;;
819;SDS011;392;48.838;2.322;2024-02-21T09:07:43;8.40;;;7.30;;
819;SDS011;392;48.838;2.322;2024-02-21T09:10:11;8.83;;;7.00;;
819;SDS011;392;48.838;2.322;2024-02-21T09:12:38;9.60;;;7.07;;
819;SDS011;392;48.838;2.322;2024-02-21T09:15:06;7.77;;;7.07;;
819;SDS011;392;48.838;2.322;2024-02-21T09:17:35;8.37;;;7.47;;
819;SDS011;392;48.838;2.322;2024-02-21T09:20:02;7.17;;;6.40;;
819;SDS011;392;48.838;2.322;2024-02-21T09:22:31;7.90;;;7.17;;
819;SDS011;392;48.838;2.322;2024-02-21T09:24:59;7.20;;;6.37;;
819;SDS011;392;48.838;2.322;2024-02-21T09:27:28;7.33;;;6.47;;
819;SDS011;392;48.838;2.322;2024-02-21T09:29:55;8.70;;;6.37;;
819;SDS011;392;48.838;2.322;2024-02-21T09:32:23;9.70;;;7.30;;
819;SDS011;392;48.838;2.322;2024-02-21T09:34:51;9.83;;;6.90;;
819;SDS011;392;48.838;2.322;2024-02-21T09:37:19;7.40;;;6.73;;
819;SDS011;392;48.838;2.322;2024-02-21T09:39:47;6.60;;;5.57;;
819;SDS011;392;48.838;2.322;2024-02-21T09:42:15;6.70;;;5.97;;
819;SDS011;392;48.838;2.322;2024-02-21T09:44:46;8.33;;;6.43;;
819;SDS011;392;48.838;2.322;2024-02-21T09:47:17;8.77;;;6.60;;
819;SDS011;392;48.838;2.322;2024-02-21T09:49:49;7.60;;;6.37;;
819;SDS011;392;48.838;2.322;2024-02-21T09:52:18;6.97;;;6.43;;
819;SDS011;392;48.838;2.322;2024-02-21T09:54:47;7.20;;;6.50;;
819;SDS011;392;48.838;2.322;2024-02-21T09:57:14;7.90;;;6.70;;
819;SDS011;392;48.838;2.322;2024-02-21T09:59:42;9.23;;;6.77;;
819;SDS011;392;48.838;2.322;2024-02-21T10:02:11;9.13;;;6.10;;
819;SDS011;392;48.838;2.322;2024-02-21T10:04:39;6.50;;;5.90;;
819;SDS011;392;48.838;2.322;2024-02-21T10:07:08;7.70;;;6.53;;
819;SDS011;392;48.838;2.322;2024-02-21T10:09:36;7.07;;;6.33;;
819;SDS011;392;48.838;2.322;2024-02-21T10:12:08;6.80;;;6.20;;
819;SDS011;392;48.838;2.322;2024-02-21T10:14:37;6.07;;;5.57;;
819;SDS011;392;48.838;2.322;2024-02-21T10:17:04;7.90;;;6.33;;
819;SDS011;392;48.838;2.322;2024-02-21T10:19:34;6.83;;;6.13;;
819;SDS011;392;48.838;2.322;2024-02-21T10:22:02;6.57;;;6.00;;
819;SDS011;392;48.838;2.322;2024-02-21T10:24:34;7.70;;;5.87;;
819;SDS011;392;48.838;2.322;2024-02-21T10:27:03;6.57;;;6.03;;
819;SDS011;392;48.838;2.322;2024-02-21T10:29:33;6.20;;;5.67;;
819;SDS011;392;48.838;2.322;2024-02-21T10:32:04;6.80;;;6.10;;
819;SDS011;392;48.838;2.322;2024-02-21T10:34:33;6.43;;;5.93;;
819;SDS011;392;48.838;2.322;2024-02-21T10:37:01;11.47;;;9.53;;
819;SDS011;392;48.838;2.322;2024-02-21T10:39:29;9.27;;;6.67;;
819;SDS011;392;48.838;2.322;2024-02-21T10:41:59;7.47;;;6.73;;
819;SDS011;392;48.838;2.322;2024-02-21T10:44:29;6.97;;;6.03;;
819;SDS011;392;48.838;2.322;2024-02-21T10:46:59;6.50;;;5.80;;
819;SDS011;392;48.838;2.322;2024-02-21T10:49:31;5.90;;;5.50;;
819;SDS011;392;48.838;2.322;2024-02-21T10:52:06;7.00;;;6.33;;
819;SDS011;392;48.838;2.322;2024-02-21T10:54:43;7.30;;;5.87;;
819;SDS011;392;48.838;2.322;2024-02-21T10:57:14;6.53;;;5.83;;
819;SDS011;392;48.838;2.322;2024-02-21T10:59:44;5.40;;;5.00;;
819;SDS011;392;48.838;2.322;2024-02-21T11:02:11;6.27;;;5.67;;
819;SDS011;392;48.838;2.322;2024-02-21T11:04:39;7.00;;;5.40;;
819;SDS011;392;48.838;2.322;2024-02-21T11:07:07;5.60;;;5.07;;
819;SDS011;392;48.838;2.322;2024-02-21T11:09:35;5.73;;;5.33;;
819;SDS011;392;48.838;2.322;2024-02-21T11:12:03;5.97;;;5.43;;
819;SDS011;392;48.838;2.322;2024-02-21T11:14:33;6.77;;;5.53;;
819;SDS011;392;48.838;2.322;2024-02-21T11:17:02;8.37;;;5.10;;
819;SDS011;392;48.838;2.322;2024-02-21T11:19:41;7.17;;;5.67;;
819;SDS011;392;48.838;2.322;2024-02-21T11:22:13;6.33;;;5.13;;
819;SDS011;392;48.838;2.322;2024-02-21T11:24:42;5.83;;;5.10;;
819;SDS011;392;48.838;2.322;2024-02-21T11:27:11;6.97;;;5.30;;
819;SDS011;392;48.838;2.322;2024-02-21T11:29:41;5.53;;;4.60;;
819;SDS011;392;48.838;2.322;2024-02-21T11:32:09;5.83;;;5.33;;
819;SDS011;392;48.838;2.322;2024-02-21T11:34:37;9.20;;;5.70;;
819;SDS011;392;48.838;2.322;2024-02-21T11:37:12;5.57;;;5.10;;
819;SDS011;392;48.838;2.322;2024-02-21T11:39:42;6.30;;;4.97;;
819;SDS011;392;48.838;2.322;2024-02-21T11:42:09;6.30;;;5.63;;
819;SDS011;392;48.838;2.322;2024-02-21T11:44:38;5.70;;;5.20;;
819;SDS011;392;48.838;2.322;2024-02-21T11:47:08;6.77;;;5.67;;
819;SDS011;392;48.838;2.322;2024-02-21T11:49:36;7.20;;;6.20;;
819;SDS011;392;48.838;2.322;2024-02-21T11:52:05;6.23;;;5.73;;
819;SDS011;392;48.838;2.322;2024-02-21T11:54:32;6.33;;;5.53;;
819;SDS011;392;48.838;2.322;2024-02-21T11:57:00;5.70;;;5.20;;
819;SDS011;392;48.838;2.322;2024-02-21T12:01:59;5.27;;;4.87;;
819;SDS011;392;48.838;2.322;2024-02-21T12:04:28;6.07;;;5.57;;
819;SDS011;392;48.838;2.322;2024-02-21T12:06:57;6.40;;;5.33;;
819;SDS011;392;48.838;2.322;2024-02-21T12:09:25;6.57;;;5.80;;
819;SDS011;392;48.838;2.322;2024-02-21T12:11:59;5.60;;;5.20;;
819;SDS011;392;48.838;2.322;2024-02-21T12:14:29;6.10;;;5.50;;
819;SDS011;392;48.838;2.322;2024-02-21T12:16:58;5.37;;;4.87;;
819;SDS011;392;48.838;2.322;2024-02-21T12:19:29;5.60;;;5.10;;
819;SDS011;392;48.838;2.322;2024-02-21T12:21:58;6.70;;;6.20;;
819;SDS011;392;48.838;2.322;2024-02-21T12:24:26;5.90;;;5.30;;
819;SDS011;392;48.838;2.322;2024-02-21T12:26:56;5.90;;;5.30;;
819;SDS011;392;48.838;2.322;2024-02-21T12:29:25;5.57;;;5.07;;
819;SDS011;392;48.838;2.322;2024-02-21T12:31:52;5.17;;;4.70;;
819;SDS011;392;48.838;2.322;2024-02-21T12:34:21;5.53;;;5.07;;
819;SDS011;392;48.838;2.322;2024-02-21T12:36:52;9.93;;;5.30;;
819;SDS011;392;48.838;2.322;2024-02-21T12:39:19;5.23;;;4.60;;
819;SDS011;392;48.838;2.322;2024-02-21T12:41:46;5.80;;;5.30;;
819;SDS011;392;48.838;2.322;2024-02-21T12:44:13;6.50;;;5.90;;
819;SDS011;392;48.838;2.322;2024-02-21T12:46:42;6.00;;;4.90;;
819;SDS011;392;48.838;2.322;2024-02-21T12:49:09;5.40;;;4.90;;
819;SDS011;392;48.838;2.322;2024-02-21T12:51:38;5.60;;;5.10;;
819;SDS011;392;48.838;2.322;2024-02-21T12:54:07;6.70;;;5.13;;
819;SDS011;392;48.838;2.322;2024-02-21T12:56:36;5.43;;;5.03;;
819;SDS011;392;48.838;2.322;2024-02-21T12:59:04;5.90;;;5.40;;
819;SDS011;392;48.838;2.322;2024-02-21T13:01:34;7.20;;;6.50;;
819;SDS011;392;48.838;2.322;2024-02-21T13:04:01;7.10;;;6.43;;
819;SDS011;392;48.838;2.322;2024-02-21T13:06:28;6.30;;;5.80;;
819;SDS011;392;48.838;2.322;2024-02-21T13:08:57;5.30;;;4.90;;
819;SDS011;392;48.838;2.322;2024-02-21T13:11:28;6.33;;;5.43;;
819;SDS011;392;48.838;2.322;2024-02-21T13:13:56;6.50;;;5.67;;
819;SDS011;392;48.838;2.322;2024-02-21T13:16:23;6.27;;;5.67;;
819;SDS011;392;48.838;2.322;2024-02-21T13:18:51;7.20;;;5.30;;
819;SDS011;392;48.838;2.322;2024-02-21T13:21:19;7.07;;;5.60;;
819;SDS011;392;48.838;2.322;2024-02-21T13:23:46;7.60;;;6.07;;
819;SDS011;392;48.838;2.322;2024-02-21T13:26:20;7.50;;;5.80;;
819;SDS011;392;48.838;2.322;2024-02-21T13:28:47;6.20;;;5.57;;
819;SDS011;392;48.838;2.322;2024-02-21T13:31:15;6.47;;;5.80;;
819;SDS011;392;48.838;2.322;2024-02-21T13:33:42;7.37;;;6.67;;
819;SDS011;392;48.838;2.322;2024-02-21T13:36:10;6.53;;;5.93;;
819;SDS011;392;48.838;2.322;2024-02-21T13:38:40;7.30;;;6.60;;
819;SDS011;392;48.838;2.322;2024-02-21T13:41:07;6.83;;;6.23;;
819;SDS011;392;48.838;2.322;2024-02-21T13:43:36;6.20;;;5.70;;
819;SDS011;392;48.838;2.322;2024-02-21T13:46:03;7.20;;;6.50;;
819;SDS011;392;48.838;2.322;2024-02-21T13:48:35;7.10;;;6.60;;
819;SDS011;392;48.838;2.322;2024-02-21T13:51:02;6.53;;;6.03;;
819;SDS011;392;48.838;2.322;2024-02-21T13:53:30;7.47;;;6.40;;
819;SDS011;392;48.838;2.322;2024-02-21T13:55:57;7.27;;;6.60;;
819;SDS011;392;48.838;2.322;2024-02-21T13:58:24;7.43;;;6.73;;
819;SDS011;392;48.838;2.322;2024-02-21T14:00:53;7.80;;;7.03;;
819;SDS011;392;48.838;2.322;2024-02-21T14:03:21;7.70;;;6.90;;
819;SDS011;392;48.838;2.322;2024-02-21T14:05:51;7.97;;;7.20;;
819;SDS011;392;48.838;2.322;2024-02-21T14:08:18;7.63;;;6.93;;
819;SDS011;392;48.838;2.322;2024-02-21T14:10:45;8.43;;;7.63;;
819;SDS011;392;48.838;2.322;2024-02-21T14:13:12;7.43;;;6.73;;
819;SDS011;392;48.838;2.322;2024-02-21T14:15:41;8.03;;;7.23;;
819;SDS011;392;48.838;2.322;2024-02-21T14:18:12;8.70;;;7.80;;
819;SDS011;392;48.838;2.322;2024-02-21T14:20:41;8.83;;;7.93;;
819;SDS011;392;48.838;2.322;2024-02-21T14:23:09;10.30;;;7.80;;
819;SDS011;392;48.838;2.322;2024-02-21T14:25:38;8.53;;;7.57;;
819;SDS011;392;48.838;2.322;2024-02-21T14:28:07;9.30;;;8.00;;
819;SDS011;392;48.838;2.322;2024-02-21T14:30:35;10.27;;;8.10;;
819;SDS011;392;48.838;2.322;2024-02-21T14:33:02;11.20;;;7.90;;
819;SDS011;392;48.838;2.322;2024-02-21T14:35:31;9.47;;;7.33;;
819;SDS011;392;48.838;2.322;2024-02-21T14:37:59;8.13;;;7.40;;
819;SDS011;392;48.838;2.322;2024-02-21T14:40:26;9.30;;;8.50;;
819;SDS011;392;48.838;2.322;2024-02-21T14:42:55;8.53;;;7.63;;
819;SDS011;392;48.838;2.322;2024-02-21T14:45:22;9.07;;;8.27;;
819;SDS011;392;48.838;2.322;2024-02-21T14:47:49;12.20;;;8.37;;
819;SDS011;392;48.838;2.322;2024-02-21T14:50:16;9.30;;;8.37;;
819;SDS011;392;48.838;2.322;2024-02-21T14:52:45;8.80;;;7.90;;
819;SDS011;392;48.838;2.322;2024-02-21T14:55:13;9.77;;;8.97;;
819;SDS011;392;48.838;2.322;2024-02-21T14:57:40;9.60;;;8.70;;
819;SDS011;392;48.838;2.322;2024-02-21T15:00:08;10.40;;;9.23;;
819;SDS011;392;48.838;2.322;2024-02-21T15:02:36;9.17;;;8.33;;
819;SDS011;392;48.838;2.322;2024-02-21T15:05:03;10.20;;;9.10;;
819;SDS011;392;48.838;2.322;2024-02-21T15:07:31;9.70;;;8.20;;
819;SDS011;392;48.838;2.322;2024-02-21T15:10:00;9.33;;;8.17;;
819;SDS011;392;48.838;2.322;2024-02-21T15:12:28;9.70;;;8.67;;
819;SDS011;392;48.838;2.322;2024-02-21T15:14:56;9.10;;;8.30;;
819;SDS011;392;48.838;2.322;2024-02-21T15:17:24;10.07;;;9.10;;
819;SDS011;392;48.838;2.322;2024-02-21T15:19:51;11.47;;;8.43;;
819;SDS011;392;48.838;2.322;2024-02-21T15:22:20;9.47;;;8.57;;
819;SDS011;392;48.838;2.322;2024-02-21T15:24:48;8.67;;;7.83;;
819;SDS011;392;48.838;2.322;2024-02-21T15:27:16;8.37;;;7.40;;
819;SDS011;392;48.838;2.322;2024-02-21T15:29:43;8.40;;;7.70;;
819;SDS011;392;48.838;2.322;2024-02-21T15:32:11;9.73;;;8.40;;
819;SDS011;392;48.838;2.322;2024-02-21T15:34:38;8.70;;;7.67;;
819;SDS011;392;48.838;2.322;2024-02-21T15:37:05;7.80;;;7.00;;
819;SDS011;392;48.838;2.322;2024-02-21T15:39:32;8.67;;;7.77;;
819;SDS011;392;48.838;2.322;2024-02-21T15:42:00;7.83;;;7.13;;
819;SDS011;392;48.838;2.322;2024-02-21T15:44:29;10.00;;;9.00;;